createdAt,value
2023-11-30T00:00:52.222Z,5.53
2023-11-30T00:04:55.227Z,5.40
2023-11-30T00:08:58.774Z,4.75
2023-11-30T00:13:01.749Z,4.57
2023-11-30T00:17:08.184Z,4.60
2023-11-30T00:21:11.185Z,4.57
2023-11-30T00:25:16.799Z,4.35
2023-11-30T00:29:19.697Z,4.90
2023-11-30T00:33:24.312Z,3.95
2023-11-30T00:37:27.307Z,3.92
2023-11-30T00:41:30.240Z,4.22
2023-11-30T00:45:33.204Z,4.15
2023-11-30T00:49:37.565Z,4.60
2023-11-30T00:53:41.488Z,4.30
2023-11-30T00:57:44.395Z,5.05
2023-11-30T01:01:47.517Z,4.45
2023-11-30T01:05:52.036Z,5.07
2023-11-30T01:09:55.002Z,4.85
2023-11-30T01:13:57.891Z,5.85
2023-11-30T01:18:00.940Z,5.18
2023-11-30T01:22:06.377Z,6.05
2023-11-30T01:26:10.257Z,6.03
2023-11-30T01:30:14.111Z,5.70
2023-11-30T01:34:17.196Z,6.13
2023-11-30T01:38:22.645Z,6.28
2023-11-30T01:42:26.548Z,6.70
2023-11-30T01:46:30.178Z,5.80
2023-11-30T01:50:33.407Z,6.32
2023-11-30T01:54:38.367Z,6.75
2023-11-30T01:58:42.206Z,6.50
2023-11-30T02:02:46.514Z,6.53
2023-11-30T02:06:49.666Z,6.65
2023-11-30T02:10:54.849Z,6.30
2023-11-30T02:15:00.321Z,6.07
2023-11-30T02:19:03.329Z,6.72
2023-11-30T02:23:09.410Z,7.32
2023-11-30T02:27:12.819Z,6.93
2023-11-30T02:31:15.880Z,6.53
2023-11-30T02:35:18.886Z,6.75
2023-11-30T02:39:23.240Z,6.90
2023-11-30T02:43:29.230Z,7.07
2023-11-30T02:47:32.133Z,6.68
2023-11-30T02:51:36.258Z,7.07
2023-11-30T02:55:41.264Z,6.80
2023-11-30T02:59:44.542Z,6.60
2023-11-30T03:03:47.507Z,6.57
2023-11-30T03:07:50.445Z,6.53
2023-11-30T03:11:54.758Z,7.03
2023-11-30T03:15:57.755Z,7.10
2023-11-30T03:20:00.695Z,6.72
2023-11-30T03:24:03.661Z,7.03
2023-11-30T03:28:08.763Z,6.95
2023-11-30T03:32:11.934Z,8.07
2023-11-30T03:36:15.115Z,8.00
2023-11-30T03:40:18.265Z,7.75
2023-11-30T03:44:22.621Z,8.30
2023-11-30T03:48:26.868Z,9.13
2023-11-30T03:52:29.927Z,9.52
2023-11-30T03:56:33.153Z,9.15
2023-11-30T04:00:37.476Z,9.15
2023-11-30T04:04:40.617Z,8.38
2023-11-30T04:08:43.575Z,8.40
2023-11-30T04:12:46.521Z,8.73
2023-11-30T04:16:50.884Z,8.93
2023-11-30T04:20:53.955Z,8.50
2023-11-30T04:24:57.005Z,7.00
2023-11-30T04:29:00.618Z,13.10
2023-11-30T04:33:08.056Z,7.15
2023-11-30T04:37:11.249Z,7.13
2023-11-30T04:41:14.406Z,9.48
2023-11-30T04:45:17.671Z,8.80
2023-11-30T04:49:22.241Z,7.82
2023-11-30T04:53:25.757Z,8.75
2023-11-30T04:57:28.937Z,8.10
2023-11-30T05:01:34.050Z,8.95
2023-11-30T05:05:38.693Z,9.05
2023-11-30T05:09:45.698Z,14.43
2023-11-30T05:13:50.008Z,9.63
2023-11-30T05:17:53.208Z,8.15
2023-11-30T05:21:57.746Z,16.00
2023-11-30T05:26:00.843Z,15.75
2023-11-30T05:30:04.649Z,6.90
2023-11-30T05:34:08.753Z,7.05
2023-11-30T05:38:13.196Z,6.78
2023-11-30T05:42:16.312Z,6.40
2023-11-30T05:46:19.625Z,7.47
2023-11-30T05:50:22.806Z,7.43
2023-11-30T05:54:27.326Z,7.85
2023-11-30T05:58:30.494Z,9.45
2023-11-30T06:02:34.172Z,7.97
2023-11-30T06:06:37.320Z,8.30
2023-11-30T06:10:41.868Z,7.30
2023-11-30T06:14:45.048Z,7.25
2023-11-30T06:18:48.163Z,7.43
2023-11-30T06:22:51.262Z,7.55
2023-11-30T06:26:57.034Z,6.93
2023-11-30T06:31:00.771Z,8.07
2023-11-30T06:35:04.972Z,8.32
2023-11-30T06:39:09.616Z,9.52
2023-11-30T06:43:14.092Z,8.75
2023-11-30T06:47:17.243Z,11.50
2023-11-30T06:51:20.675Z,8.75
2023-11-30T06:55:24.288Z,8.27
2023-11-30T06:59:31.251Z,8.38
2023-11-30T07:03:42.543Z,8.85
2023-11-30T07:07:46.688Z,9.50
2023-11-30T07:11:50.122Z,10.30
2023-11-30T07:15:54.788Z,10.48
2023-11-30T07:19:57.934Z,10.02
2023-11-30T07:24:01.971Z,10.30
2023-11-30T07:28:05.402Z,12.35
2023-11-30T07:36:21.494Z,11.98
2023-11-30T07:40:24.668Z,12.15
2023-11-30T07:44:28.930Z,12.18
2023-11-30T07:48:33.926Z,12.90
2023-11-30T07:52:38.676Z,11.80
2023-11-30T07:56:41.981Z,12.07
2023-11-30T08:00:45.274Z,10.82
2023-11-30T08:04:49.949Z,10.48
2023-11-30T08:08:53.200Z,10.77
2023-11-30T08:12:56.538Z,8.88
2023-11-30T08:17:00.584Z,8.68
2023-11-30T08:21:06.559Z,8.80
2023-11-30T08:25:12.950Z,8.57
2023-11-30T08:29:16.844Z,8.52
2023-11-30T08:33:20.135Z,7.93
2023-11-30T08:37:24.776Z,8.27
2023-11-30T08:41:28.220Z,8.40
2023-11-30T08:45:33.431Z,7.60
2023-11-30T08:49:36.797Z,8.30
2023-11-30T08:53:41.348Z,8.45
2023-11-30T08:57:45.155Z,8.38
2023-11-30T09:01:49.730Z,9.65
2023-11-30T09:05:53.110Z,8.57
2023-11-30T09:09:57.855Z,9.40
2023-11-30T09:14:01.133Z,9.90
2023-11-30T09:18:05.361Z,10.25
2023-11-30T09:22:09.186Z,10.18
2023-11-30T09:26:13.935Z,8.95
2023-11-30T09:30:17.719Z,10.75
2023-11-30T09:34:21.046Z,9.15
2023-11-30T09:38:24.323Z,8.52
2023-11-30T09:42:30.703Z,8.18
2023-11-30T09:46:34.230Z,9.48
2023-11-30T09:50:37.570Z,8.20
2023-11-30T09:54:41.311Z,7.30
2023-11-30T09:58:46.094Z,7.32
2023-11-30T10:02:55.946Z,6.65
2023-11-30T10:11:05.077Z,6.78
2023-11-30T10:15:11.926Z,6.40
2023-11-30T10:19:18.734Z,6.50
2023-11-30T10:23:22.943Z,5.65
2023-11-30T10:27:31.257Z,5.47
2023-11-30T10:31:37.957Z,5.60
2023-11-30T10:35:45.724Z,5.32
2023-11-30T10:39:57.264Z,4.72
2023-11-30T10:44:01.804Z,5.00
2023-11-30T10:48:13.983Z,4.82
2023-11-30T10:52:18.182Z,5.55
2023-11-30T10:56:23.407Z,5.45
2023-11-30T11:00:27.179Z,5.15
2023-11-30T11:04:31.986Z,5.30
2023-11-30T11:08:35.332Z,5.20
2023-11-30T11:12:41.376Z,5.18
2023-11-30T11:16:45.959Z,4.95
2023-11-30T11:20:50.491Z,5.13
2023-11-30T11:24:58.356Z,4.45
2023-11-30T11:29:02.596Z,4.95
2023-11-30T11:33:06.416Z,5.22
2023-11-30T11:37:12.092Z,5.15
2023-11-30T11:41:15.000Z,4.75
2023-11-30T11:45:18.006Z,4.82
2023-11-30T11:49:20.936Z,5.60
2023-11-30T11:53:25.220Z,5.10
2023-11-30T11:57:36.144Z,5.38
2023-11-30T12:01:40.067Z,4.68
2023-11-30T12:05:48.918Z,4.80
2023-11-30T12:09:59.520Z,4.47
2023-11-30T12:14:02.727Z,4.97
2023-11-30T12:18:06.188Z,4.43
2023-11-30T12:22:09.192Z,5.38
2023-11-30T12:26:13.466Z,4.85
2023-11-30T12:30:16.660Z,5.03
2023-11-30T12:34:19.632Z,4.72
2023-11-30T12:38:23.209Z,4.35
2023-11-30T12:42:27.712Z,4.65
2023-11-30T12:46:30.803Z,4.47
2023-11-30T12:50:33.732Z,4.53
2023-11-30T12:54:38.625Z,4.43
2023-11-30T12:58:43.060Z,4.63
2023-11-30T13:02:48.639Z,3.60
2023-11-30T13:06:51.901Z,4.28
2023-11-30T13:10:56.541Z,3.88
2023-11-30T13:15:00.928Z,4.03
2023-11-30T13:19:06.838Z,4.05
2023-11-30T13:23:09.982Z,5.07
2023-11-30T13:27:13.137Z,4.20
2023-11-30T13:31:17.533Z,4.13
2023-11-30T13:35:20.691Z,3.88
2023-11-30T13:39:23.922Z,4.25
2023-11-30T13:43:26.929Z,4.13
2023-11-30T13:47:31.833Z,4.63
2023-11-30T13:51:35.098Z,3.78
2023-11-30T13:55:38.318Z,3.72
2023-11-30T13:59:41.390Z,3.47
2023-11-30T14:03:45.827Z,4.10
2023-11-30T14:07:48.725Z,3.95
2023-11-30T14:11:51.725Z,3.97
2023-11-30T14:15:54.952Z,3.63
2023-11-30T14:19:59.884Z,3.40
2023-11-30T14:24:03.613Z,3.53
2023-11-30T14:28:12.725Z,4.38
2023-11-30T14:32:16.846Z,3.97
2023-11-30T14:36:21.417Z,4.38
2023-11-30T14:40:24.402Z,4.80
2023-11-30T14:44:27.443Z,4.63
2023-11-30T14:48:30.472Z,4.90
2023-11-30T14:52:34.848Z,4.50
2023-11-30T14:56:37.926Z,4.60
2023-11-30T15:00:41.692Z,4.63
2023-11-30T15:04:44.661Z,4.90
2023-11-30T15:08:48.940Z,4.68
2023-11-30T15:12:52.211Z,4.20
2023-11-30T15:16:55.276Z,5.30
2023-11-30T15:20:58.658Z,4.95
2023-11-30T15:25:03.135Z,4.20
2023-11-30T15:29:06.054Z,4.38
2023-11-30T15:33:10.492Z,4.80
2023-11-30T15:37:14.402Z,4.95
2023-11-30T15:41:19.231Z,5.95
2023-11-30T15:45:23.613Z,4.85
2023-11-30T15:49:27.140Z,5.93
2023-11-30T15:53:30.144Z,4.95
2023-11-30T15:57:34.898Z,4.72
2023-11-30T16:01:37.906Z,5.00
2023-11-30T16:05:40.870Z,4.63
2023-11-30T16:09:45.106Z,4.43
2023-11-30T16:13:50.418Z,4.45
2023-11-30T16:17:53.372Z,4.55
2023-11-30T16:21:58.126Z,4.70
2023-11-30T16:26:01.441Z,4.35
2023-11-30T16:30:12.311Z,4.30
2023-11-30T16:34:16.775Z,6.50
2023-11-30T16:38:19.674Z,10.55
2023-11-30T16:42:22.740Z,6.55
2023-11-30T16:46:27.038Z,6.10
2023-11-30T16:50:30.021Z,7.93
2023-11-30T16:54:34.098Z,18.33
2023-11-30T16:58:37.029Z,12.30
2023-11-30T17:02:41.597Z,5.20
2023-11-30T17:06:44.557Z,4.95
2023-11-30T17:10:47.521Z,5.75
2023-11-30T17:14:50.774Z,5.90
2023-11-30T17:18:55.163Z,4.70
2023-11-30T17:22:58.123Z,5.18
2023-11-30T17:27:01.166Z,5.35
2023-11-30T17:31:29.817Z,6.75
2023-11-30T17:35:34.517Z,8.20
2023-11-30T17:39:37.564Z,5.53
2023-11-30T17:43:40.517Z,9.77
2023-11-30T17:47:43.614Z,5.65
2023-11-30T17:51:48.192Z,5.50
2023-11-30T17:55:51.188Z,5.63
2023-11-30T17:59:54.778Z,6.43
2023-11-30T18:03:58.854Z,5.03
2023-11-30T18:08:03.384Z,5.95
2023-11-30T18:12:07.341Z,6.43
2023-11-30T18:16:11.205Z,6.00
2023-11-30T18:20:14.183Z,6.90
2023-11-30T18:24:18.628Z,8.20
2023-11-30T18:28:21.555Z,5.10
2023-11-30T18:32:24.671Z,5.78
2023-11-30T18:36:27.865Z,4.93
2023-11-30T18:40:32.257Z,4.82
2023-11-30T18:44:35.177Z,4.88
2023-11-30T18:48:38.192Z,10.95
2023-11-30T18:52:41.144Z,6.38
2023-11-30T18:56:45.515Z,9.32
2023-11-30T19:00:48.598Z,8.35
2023-11-30T19:04:51.560Z,9.45
2023-11-30T19:08:54.603Z,9.27
2023-11-30T19:12:59.052Z,9.13
2023-11-30T19:17:02.072Z,9.35
2023-11-30T19:21:05.413Z,12.23
2023-11-30T19:25:18.882Z,11.73
2023-11-30T19:29:23.170Z,10.52
2023-11-30T19:33:26.126Z,8.93
2023-11-30T19:37:29.075Z,12.50
2023-11-30T19:41:32.114Z,11.13
2023-11-30T19:45:36.439Z,12.15
2023-11-30T19:49:39.373Z,10.23
2023-11-30T19:53:42.301Z,10.25
2023-11-30T19:57:45.329Z,8.80
2023-11-30T20:01:49.838Z,9.00
2023-11-30T20:05:53.698Z,9.45
2023-11-30T20:09:56.655Z,9.27
2023-11-30T20:13:59.631Z,8.52
2023-11-30T20:18:05.244Z,9.05
2023-11-30T20:22:11.412Z,11.18
2023-11-30T20:26:14.672Z,10.02
2023-11-30T20:30:17.667Z,10.90
2023-11-30T20:34:22.032Z,9.82
2023-11-30T20:38:25.480Z,9.35
2023-11-30T20:42:29.264Z,9.40
2023-11-30T20:46:32.260Z,9.43
2023-11-30T20:50:36.588Z,9.32
2023-11-30T20:54:40.728Z,9.45
2023-11-30T20:58:46.601Z,13.40
2023-11-30T21:02:49.718Z,9.55
2023-11-30T21:06:54.243Z,14.25
2023-11-30T21:10:57.239Z,12.52
2023-11-30T21:15:00.216Z,41.42
2023-11-30T21:19:03.516Z,12.57
2023-11-30T21:23:09.795Z,10.75
2023-11-30T21:27:13.847Z,8.82
2023-11-30T21:31:17.225Z,9.65
2023-11-30T21:35:20.200Z,8.95
2023-11-30T21:39:25.187Z,9.27
2023-11-30T21:43:28.083Z,10.30
2023-11-30T21:47:31.397Z,8.93
2023-11-30T21:51:34.620Z,8.18
2023-11-30T21:55:38.924Z,7.95
2023-11-30T21:59:41.822Z,7.57
2023-11-30T22:03:44.970Z,7.72
2023-11-30T22:07:48.069Z,8.38
2023-11-30T22:11:52.325Z,8.63
2023-11-30T22:16:00.100Z,8.18
2023-11-30T22:20:10.781Z,8.10
2023-11-30T22:24:15.447Z,8.30
2023-11-30T22:28:19.765Z,9.07
2023-11-30T22:32:22.881Z,8.32
2023-11-30T22:36:25.800Z,8.30
2023-11-30T22:40:28.673Z,9.02
2023-11-30T22:44:33.426Z,8.48
2023-11-30T22:48:36.440Z,7.95
2023-11-30T22:52:39.455Z,7.70
2023-11-30T22:56:42.478Z,7.22
2023-11-30T23:00:46.966Z,7.30
2023-11-30T23:04:50.159Z,6.88
2023-11-30T23:08:54.011Z,7.45
2023-11-30T23:12:56.931Z,7.70
2023-11-30T23:17:01.366Z,7.30
2023-11-30T23:21:05.152Z,7.45
2023-11-30T23:25:10.037Z,7.72
2023-11-30T23:29:12.993Z,7.93
2023-11-30T23:33:17.401Z,7.30
2023-11-30T23:37:20.398Z,7.32
2023-11-30T23:41:23.652Z,8.18
2023-11-30T23:45:26.997Z,7.32
2023-11-30T23:49:31.276Z,6.38
2023-11-30T23:53:34.208Z,6.45
2023-11-30T23:57:37.382Z,6.65
